createdAt,value
2022-12-14T00:03:03.280Z,98221.00
2022-12-14T00:13:14.877Z,98210.08
2022-12-14T00:23:22.236Z,98215.52
2022-12-14T00:33:29.835Z,98201.88
2022-12-14T00:43:37.059Z,98197.90
2022-12-14T00:53:45.239Z,98192.58
2022-12-14T01:04:12.445Z,98178.96
2022-12-14T01:14:22.127Z,98166.20
2022-12-14T01:24:29.265Z,98165.12
2022-12-14T01:34:36.450Z,98160.17
2022-12-14T01:44:57.473Z,98157.66
2022-12-14T01:55:08.492Z,98151.61
2022-12-14T02:05:18.215Z,98152.23
2022-12-14T02:15:26.057Z,98146.80
2022-12-14T02:26:06.880Z,98132.35
2022-12-14T02:36:22.488Z,98132.59
2022-12-14T02:46:30.401Z,98133.64
2022-12-14T02:56:41.039Z,98129.42
2022-12-14T03:06:52.540Z,98131.60
2022-12-14T03:17:01.478Z,98126.73
2022-12-14T03:27:06.245Z,98118.53
2022-12-14T03:37:17.239Z,98106.83
2022-12-14T03:47:27.659Z,98098.98
2022-12-14T03:57:38.266Z,98104.38
2022-12-14T04:07:48.498Z,98112.39
2022-12-14T04:18:14.026Z,98101.48
2022-12-14T04:28:33.040Z,98093.42
2022-12-14T04:38:43.972Z,98084.14
2022-12-14T04:48:56.966Z,98081.69
2022-12-14T04:59:04.549Z,98079.30
2022-12-14T05:09:16.391Z,98064.27
2022-12-14T05:19:23.711Z,98047.72
2022-12-14T05:29:30.819Z,98027.64
2022-12-14T05:39:38.173Z,98023.91
2022-12-14T05:49:45.260Z,98023.23
2022-12-14T05:59:56.828Z,98015.20
2022-12-14T06:10:04.105Z,98014.70
2022-12-14T06:20:13.009Z,98008.09
2022-12-14T06:30:19.453Z,98008.83
2022-12-14T06:40:26.506Z,98006.59
2022-12-14T06:50:33.806Z,97994.90
2022-12-14T07:00:41.071Z,97989.57
2022-12-14T07:10:48.093Z,97983.41
2022-12-14T07:20:57.378Z,97981.05
2022-12-14T07:31:05.557Z,97972.73
2022-12-14T07:41:21.850Z,97971.77
2022-12-14T07:51:31.983Z,97968.69
2022-12-14T08:01:39.419Z,97956.48
2022-12-14T08:11:46.980Z,97960.02
2022-12-14T08:21:54.227Z,97954.48
2022-12-14T08:32:01.420Z,97948.58
2022-12-14T08:42:08.664Z,97939.59
2022-12-14T08:52:16.615Z,97936.45
2022-12-14T09:02:24.144Z,97939.46
2022-12-14T09:12:30.783Z,97933.46
2022-12-14T09:22:38.085Z,97931.59
2022-12-14T09:32:45.335Z,97917.64
2022-12-14T09:42:58.451Z,97899.40
2022-12-14T09:53:12.458Z,97887.50
2022-12-14T10:03:26.311Z,97879.34
2022-12-14T10:13:35.436Z,97873.36
2022-12-14T10:23:43.016Z,97855.88
2022-12-14T10:33:51.702Z,97838.77
2022-12-14T10:44:01.272Z,97822.36
2022-12-14T10:54:09.491Z,97814.30
2022-12-14T11:04:15.200Z,97801.86
2022-12-14T11:14:26.902Z,97784.64
2022-12-14T11:24:35.867Z,97773.69
2022-12-14T11:34:44.130Z,97757.95
2022-12-14T11:44:53.462Z,97738.19
2022-12-14T11:55:19.157Z,97725.15
2022-12-14T12:05:32.367Z,97710.10
2022-12-14T12:15:42.594Z,97693.16
2022-12-14T12:26:00.375Z,97669.34
2022-12-14T12:36:06.871Z,97646.80
2022-12-14T12:46:17.504Z,97629.91
2022-12-14T12:56:28.457Z,97616.42
2022-12-14T13:06:41.177Z,97599.67
2022-12-14T13:16:51.678Z,97599.05
2022-12-14T13:27:17.133Z,97574.42
2022-12-14T13:37:49.532Z,97555.41
2022-12-14T13:47:59.084Z,97528.70
2022-12-14T13:58:10.442Z,97506.71
2022-12-14T14:08:41.420Z,97497.59
2022-12-14T14:18:59.922Z,97491.16
2022-12-14T14:29:19.983Z,97477.82
2022-12-14T14:40:04.585Z,97462.38
2022-12-14T15:00:28.427Z,97443.30
2022-12-14T15:10:43.224Z,97441.60
2022-12-14T15:20:52.102Z,97436.52
2022-12-14T15:31:00.243Z,97422.14
2022-12-14T15:41:15.649Z,97413.23
2022-12-14T15:51:25.779Z,97401.96
2022-12-14T16:01:31.853Z,97403.04
2022-12-14T16:11:42.382Z,97410.08
2022-12-14T16:32:01.156Z,97382.27
2022-12-14T16:42:18.872Z,97360.23
2022-12-14T16:52:26.209Z,97344.89
2022-12-14T17:02:31.409Z,97334.02
2022-12-14T17:12:39.571Z,97321.02
2022-12-14T17:22:49.742Z,97324.99
2022-12-14T17:43:05.474Z,97309.61
2022-12-14T17:53:12.524Z,97302.27
2022-12-14T18:03:20.556Z,97292.23
2022-12-14T18:13:31.520Z,97284.13
2022-12-14T18:23:39.204Z,97288.41
2022-12-14T18:33:45.548Z,97282.66
2022-12-14T18:43:54.360Z,97280.72
2022-12-14T18:54:04.137Z,97264.15
2022-12-14T19:04:11.410Z,97251.01
2022-12-14T19:14:18.640Z,97244.95
2022-12-14T19:24:25.622Z,97229.02
2022-12-14T19:34:32.815Z,97203.79
2022-12-14T19:44:38.869Z,97199.02
2022-12-14T19:54:45.983Z,97197.45
2022-12-14T20:04:53.095Z,97180.58
2022-12-14T20:15:00.172Z,97192.77
2022-12-14T20:25:08.516Z,97189.39
2022-12-14T20:35:15.158Z,97179.81
2022-12-14T20:45:22.299Z,97168.81
2022-12-14T20:55:29.508Z,97165.25
2022-12-14T21:05:40.042Z,97170.35
2022-12-14T21:15:47.523Z,97169.56
2022-12-14T21:36:01.234Z,97156.27
2022-12-14T21:46:06.112Z,97156.80
2022-12-14T21:56:30.988Z,97163.46
2022-12-14T22:06:38.337Z,97160.94
2022-12-14T22:26:52.663Z,97150.58
2022-12-14T22:36:59.630Z,97155.64
2022-12-14T22:47:06.770Z,97158.05
2022-12-14T22:57:18.543Z,97160.50
2022-12-14T23:07:25.575Z,97161.16
2022-12-14T23:17:48.978Z,97161.91
2022-12-14T23:28:13.937Z,97154.34
2022-12-14T23:38:38.615Z,97144.11
2022-12-14T23:49:03.996Z,97150.45
2022-12-14T23:59:32.455Z,97156.88
